createdAt,value
2023-05-05T00:00:24.989Z,4.78
2023-05-05T00:02:19.590Z,5.70
2023-05-05T00:07:34.284Z,5.38
2023-05-05T00:11:43.793Z,5.65
2023-05-05T00:19:33.753Z,6.93
2023-05-05T00:20:57.361Z,5.97
2023-05-05T00:24:03.920Z,5.88
2023-05-05T01:25:03.174Z,5.88
2023-05-05T01:53:45.039Z,6.07
2023-05-05T02:13:01.040Z,6.43
2023-05-05T02:15:50.349Z,6.00
2023-05-05T02:17:04.456Z,5.25
2023-05-05T02:19:43.251Z,6.57
2023-05-05T02:25:26.850Z,8.15
2023-05-05T02:27:46.015Z,7.75
2023-05-05T02:39:07.520Z,7.35
2023-05-05T02:40:11.581Z,6.97
2023-05-05T02:41:30.150Z,6.95
2023-05-05T02:42:44.591Z,7.18
2023-05-05T02:43:49.284Z,6.40
2023-05-05T02:45:04.753Z,5.72
2023-05-05T02:46:21.874Z,5.38
2023-05-05T02:47:34.315Z,6.90
2023-05-05T02:48:57.738Z,8.18
2023-05-05T02:51:13.536Z,7.65
2023-05-05T02:52:35.877Z,7.57
2023-05-05T02:53:44.069Z,6.18
2023-05-05T03:05:22.836Z,5.70
2023-05-05T03:06:45.780Z,7.15
2023-05-05T03:08:36.531Z,6.45
2023-05-05T03:13:18.118Z,5.65
2023-05-05T03:14:24.942Z,6.22
2023-05-05T03:15:42.868Z,6.47
2023-05-05T03:16:51.071Z,6.03
2023-05-05T03:17:57.883Z,6.47
2023-05-05T03:47:26.295Z,8.82
2023-05-05T03:50:57.048Z,8.35
2023-05-05T03:52:17.838Z,6.40
2023-05-05T04:02:56.375Z,6.13
2023-05-05T04:03:58.194Z,7.07
2023-05-05T04:05:07.269Z,6.93
2023-05-05T04:07:25.515Z,9.30
2023-05-05T04:08:30.522Z,6.47
2023-05-05T04:09:44.589Z,6.35
2023-05-05T04:11:25.556Z,6.20
2023-05-05T04:12:27.301Z,7.32
2023-05-05T04:13:34.869Z,6.43
2023-05-05T04:14:51.288Z,8.50
2023-05-05T04:16:01.739Z,8.98
2023-05-05T04:21:25.297Z,6.60
2023-05-05T04:22:34.654Z,6.70
2023-05-05T04:23:46.575Z,6.30
2023-05-05T04:24:50.922Z,6.20
2023-05-05T04:26:10.805Z,7.05
2023-05-05T04:27:12.774Z,6.50
2023-05-05T04:28:14.803Z,6.15
2023-05-05T04:29:16.600Z,7.35
2023-05-05T04:30:18.210Z,7.55
2023-05-05T04:31:19.883Z,7.72
2023-05-05T04:32:21.796Z,8.82
2023-05-05T04:33:23.640Z,8.50
2023-05-05T04:34:25.173Z,9.55
2023-05-05T04:35:26.711Z,6.68
2023-05-05T04:36:29.766Z,7.35
2023-05-05T04:37:34.409Z,8.52
2023-05-05T04:38:36.920Z,7.57
2023-05-05T04:39:38.571Z,9.18
2023-05-05T04:40:41.319Z,6.88
2023-05-05T04:41:45.404Z,8.80
2023-05-05T04:42:47.369Z,7.63
2023-05-05T04:48:11.880Z,6.72
2023-05-05T04:49:29.387Z,7.97
2023-05-05T04:50:32.870Z,8.02
2023-05-05T04:51:34.562Z,7.20
2023-05-05T04:52:36.145Z,7.63
2023-05-05T04:53:37.650Z,7.10
2023-05-05T04:54:39.179Z,14.05
2023-05-05T04:55:40.805Z,20.98
2023-05-05T05:10:23.174Z,8.55
2023-05-05T05:11:25.019Z,6.60
2023-05-05T05:16:20.791Z,5.93
2023-05-05T05:18:07.151Z,6.80
2023-05-05T05:19:08.745Z,7.68
2023-05-05T05:20:10.857Z,7.53
2023-05-05T05:21:12.548Z,6.85
2023-05-05T05:22:14.041Z,6.75
2023-05-05T05:23:15.479Z,6.82
2023-05-05T05:24:16.962Z,6.18
2023-05-05T05:25:18.413Z,6.38
2023-05-05T05:26:20.099Z,6.82
2023-05-05T05:27:21.604Z,6.43
2023-05-05T05:28:31.681Z,7.55
2023-05-05T05:29:34.180Z,6.63
2023-05-05T05:30:35.803Z,7.13
2023-05-05T05:31:43.422Z,8.35
2023-05-05T05:32:45.187Z,6.13
2023-05-05T05:33:48.531Z,7.43
2023-05-05T05:34:50.115Z,7.85
2023-05-05T05:35:52.344Z,5.88
2023-05-05T05:36:54.529Z,6.65
2023-05-05T05:37:56.908Z,5.88
2023-05-05T05:38:58.970Z,6.22
2023-05-05T05:40:01.162Z,8.07
2023-05-05T05:41:07.941Z,6.57
2023-05-05T05:42:10.426Z,8.32
2023-05-05T05:43:12.475Z,6.32
2023-05-05T05:44:14.138Z,7.15
2023-05-05T05:45:15.738Z,6.25
2023-05-05T05:46:17.373Z,7.25
2023-05-05T05:47:19.271Z,6.22
2023-05-05T05:48:22.154Z,5.65
2023-05-05T05:50:36.839Z,5.60
2023-05-05T05:51:43.106Z,5.85
2023-05-05T05:52:44.923Z,6.03
2023-05-05T05:54:18.291Z,6.63
2023-05-05T06:00:04.871Z,6.43
2023-05-05T06:01:09.514Z,6.03
2023-05-05T06:02:21.152Z,6.53
2023-05-05T06:03:55.517Z,6.55
2023-05-05T06:05:01.250Z,7.78
2023-05-05T06:06:16.528Z,7.07
2023-05-05T06:07:24.649Z,5.45
2023-05-05T06:08:29.027Z,6.10
2023-05-05T06:09:42.639Z,5.90
2023-05-05T06:10:56.171Z,5.55
2023-05-05T06:12:00.943Z,5.85
2023-05-05T06:13:02.838Z,5.95
2023-05-05T06:14:04.718Z,6.03
2023-05-05T06:15:07.027Z,5.32
2023-05-05T06:16:08.988Z,5.72
2023-05-05T06:17:10.894Z,6.30
2023-05-05T06:18:30.453Z,6.00
2023-05-05T06:25:37.186Z,5.72
2023-05-05T06:27:11.458Z,8.50
2023-05-05T06:28:52.405Z,7.93
2023-05-05T06:30:14.931Z,5.97
2023-05-05T06:31:24.213Z,6.60
2023-05-05T06:32:36.817Z,5.90
2023-05-05T06:33:41.347Z,5.82
2023-05-05T06:34:48.525Z,7.93
2023-05-05T06:36:00.754Z,6.97
2023-05-05T06:37:21.167Z,6.72
2023-05-05T06:38:25.488Z,6.70
2023-05-05T06:39:33.155Z,7.03
2023-05-05T06:40:59.945Z,7.45
2023-05-05T06:42:39.757Z,8.20
2023-05-05T06:43:44.446Z,5.75
2023-05-05T06:44:46.515Z,7.25
2023-05-05T06:45:57.273Z,6.60
2023-05-05T06:47:15.507Z,8.23
2023-05-05T06:48:17.166Z,6.90
2023-05-05T06:49:58.672Z,8.10
2023-05-05T08:16:06.042Z,7.53
2023-05-05T08:17:58.897Z,16.58
2023-05-05T08:23:57.568Z,8.65
2023-05-05T08:34:29.376Z,8.85
2023-05-05T08:41:41.426Z,9.32
2023-05-05T08:42:48.891Z,11.35
2023-05-05T08:43:57.014Z,10.07
2023-05-05T08:45:22.292Z,9.68
2023-05-05T08:47:32.336Z,8.57
2023-05-05T08:48:50.456Z,8.93
2023-05-05T08:50:25.383Z,11.68
2023-05-05T08:51:51.729Z,10.38
2023-05-05T08:53:32.674Z,8.88
2023-05-05T08:54:49.731Z,8.98
2023-05-05T08:55:53.071Z,9.07
2023-05-05T08:57:07.741Z,9.38
2023-05-05T08:58:20.539Z,7.45
2023-05-05T08:59:39.174Z,10.27
2023-05-05T09:01:01.848Z,17.85
2023-05-05T09:02:24.951Z,12.45
2023-05-05T09:03:39.751Z,10.50
2023-05-05T09:04:45.547Z,9.65
2023-05-05T09:08:11.712Z,8.45
2023-05-05T09:11:05.108Z,9.63
2023-05-05T09:12:35.494Z,8.25
2023-05-05T09:13:57.706Z,10.80
2023-05-05T09:19:31.580Z,9.07
2023-05-05T09:20:44.697Z,9.65
2023-05-05T09:22:46.495Z,7.53
2023-05-05T09:24:52.944Z,8.30
2023-05-05T09:26:19.758Z,10.45
2023-05-05T09:27:35.254Z,8.90
2023-05-05T09:30:53.917Z,7.88
2023-05-05T09:32:24.924Z,9.25
2023-05-05T09:36:03.505Z,8.50
2023-05-05T09:37:08.070Z,8.73
2023-05-05T09:38:45.400Z,8.82
2023-05-05T09:45:03.199Z,9.45
2023-05-05T09:51:47.513Z,7.57
2023-05-05T09:57:19.520Z,7.95
2023-05-05T09:59:56.987Z,9.25
2023-05-05T10:05:32.663Z,10.88
2023-05-05T10:06:53.881Z,10.93
2023-05-05T10:15:20.239Z,8.20
2023-05-05T10:34:24.475Z,9.45
2023-05-05T10:37:27.261Z,10.32
2023-05-05T10:38:34.561Z,11.25
2023-05-05T10:53:31.396Z,9.30
2023-05-05T10:57:12.864Z,8.85
2023-05-05T10:58:59.723Z,10.60
2023-05-05T11:01:12.491Z,8.43
2023-05-05T11:02:29.430Z,9.27
2023-05-05T11:03:45.752Z,8.57
2023-05-05T11:05:54.840Z,9.45
2023-05-05T11:07:45.065Z,7.63
2023-05-05T11:09:19.912Z,7.70
2023-05-05T11:10:58.118Z,11.32
2023-05-05T11:13:41.067Z,13.20
2023-05-05T11:14:42.882Z,10.02
2023-05-05T11:18:17.340Z,9.38
2023-05-05T11:20:01.842Z,7.65
2023-05-05T11:22:07.422Z,9.70
2023-05-05T11:24:44.877Z,9.43
2023-05-05T11:26:55.936Z,7.15
2023-05-05T11:28:09.059Z,10.50
2023-05-05T11:30:22.977Z,7.70
2023-05-05T11:34:07.526Z,8.20
2023-05-05T11:35:47.198Z,8.60
2023-05-05T12:12:20.252Z,7.63
2023-05-05T12:59:58.243Z,6.85
2023-05-05T13:06:48.168Z,6.15
2023-05-05T13:08:00.583Z,5.78
2023-05-05T13:09:05.630Z,6.78
2023-05-05T13:10:13.507Z,8.13
2023-05-05T13:11:15.022Z,6.22
2023-05-05T13:12:23.323Z,7.22
2023-05-05T13:13:26.532Z,6.75
2023-05-05T13:14:28.292Z,5.80
2023-05-05T13:15:29.971Z,6.53
2023-05-05T13:16:32.322Z,7.15
2023-05-05T13:17:34.864Z,7.30
2023-05-05T13:18:49.890Z,7.95
2023-05-05T13:19:52.251Z,7.70
2023-05-05T13:20:54.280Z,7.07
2023-05-05T13:21:59.776Z,7.45
2023-05-05T13:23:02.099Z,6.18
2023-05-05T13:25:10.000Z,6.20
2023-05-05T13:26:13.560Z,7.25
2023-05-05T13:27:17.243Z,6.47
2023-05-05T13:28:18.758Z,6.85
2023-05-05T13:29:20.308Z,5.75
2023-05-05T13:30:21.906Z,6.50
2023-05-05T13:31:29.107Z,6.13
2023-05-05T13:32:31.387Z,6.20
2023-05-05T13:33:45.460Z,5.32
2023-05-05T13:34:47.035Z,6.93
2023-05-05T13:35:48.816Z,6.18
2023-05-05T13:36:50.360Z,5.82
2023-05-05T13:37:52.365Z,7.13
2023-05-05T13:38:54.069Z,5.90
2023-05-05T13:39:59.388Z,6.47
2023-05-05T13:41:01.036Z,8.05
2023-05-05T13:42:03.025Z,5.55
2023-05-05T13:43:04.665Z,5.90
2023-05-05T13:44:06.256Z,7.20
2023-05-05T13:45:08.402Z,5.75
2023-05-05T13:46:19.721Z,5.65
2023-05-05T13:47:21.797Z,5.82
2023-05-05T13:48:24.074Z,5.30
2023-05-05T13:49:25.845Z,5.43
2023-05-05T13:50:27.487Z,4.95
2023-05-05T13:51:30.085Z,6.68
2023-05-05T13:52:33.146Z,5.10
2023-05-05T13:53:35.320Z,5.53
2023-05-05T13:54:36.894Z,4.10
2023-05-05T13:55:38.642Z,4.25
2023-05-05T13:56:40.143Z,5.03
2023-05-05T13:57:42.209Z,4.70
2023-05-05T13:58:44.379Z,4.63
2023-05-05T13:59:45.951Z,4.38
2023-05-05T14:00:47.767Z,4.80
2023-05-05T14:01:49.587Z,4.05
2023-05-05T14:02:51.694Z,4.55
2023-05-05T14:03:54.942Z,5.53
2023-05-05T14:04:58.488Z,5.97
2023-05-05T14:06:00.009Z,3.75
2023-05-05T14:07:01.655Z,4.55
2023-05-05T14:08:03.688Z,4.30
2023-05-05T14:09:06.499Z,5.57
2023-05-05T14:10:09.178Z,4.10
2023-05-05T14:11:10.803Z,5.53
2023-05-05T14:12:12.449Z,4.10
2023-05-05T14:13:15.517Z,4.85
2023-05-05T14:14:17.974Z,3.80
2023-05-05T14:15:19.789Z,4.18
2023-05-05T14:16:21.361Z,3.85
2023-05-05T14:17:23.433Z,4.80
2023-05-05T14:18:25.687Z,5.47
2023-05-05T14:19:27.625Z,4.07
2023-05-05T14:20:29.253Z,4.57
2023-05-05T14:21:33.354Z,4.10
2023-05-05T14:22:34.895Z,4.32
2023-05-05T14:23:36.903Z,6.03
2023-05-05T14:24:39.097Z,5.85
2023-05-05T14:25:40.740Z,5.03
2023-05-05T14:26:42.284Z,6.40
2023-05-05T14:27:44.322Z,5.43
2023-05-05T14:28:49.574Z,4.40
2023-05-05T14:29:51.527Z,4.82
2023-05-05T14:30:53.032Z,6.50
2023-05-05T14:31:54.615Z,4.65
2023-05-05T14:32:56.395Z,4.85
2023-05-05T14:33:58.662Z,4.68
2023-05-05T14:35:00.393Z,4.88
2023-05-05T14:36:01.969Z,4.63
2023-05-05T14:37:03.673Z,5.15
2023-05-05T14:38:05.355Z,5.57
2023-05-05T14:39:07.134Z,4.75
2023-05-05T14:40:09.400Z,6.00
2023-05-05T14:41:11.742Z,6.05
2023-05-05T14:42:13.347Z,4.47
2023-05-05T14:43:14.842Z,5.07
2023-05-05T14:44:16.552Z,4.72
2023-05-05T14:45:18.118Z,5.03
2023-05-05T14:46:20.246Z,7.18
2023-05-05T14:47:21.708Z,5.75
2023-05-05T14:48:23.368Z,4.25
2023-05-05T14:49:27.166Z,5.35
2023-05-05T14:50:28.923Z,6.78
2023-05-05T14:51:31.480Z,4.82
2023-05-05T14:52:33.044Z,5.50
2023-05-05T14:53:34.859Z,8.13
2023-05-05T14:54:36.500Z,5.32
2023-05-05T14:55:38.352Z,4.60
2023-05-05T14:56:40.115Z,4.32
2023-05-05T14:57:41.804Z,5.20
2023-05-05T14:58:43.817Z,4.60
2023-05-05T14:59:45.892Z,5.72
2023-05-05T15:00:47.954Z,5.57
2023-05-05T15:01:49.640Z,4.65
2023-05-05T15:02:51.343Z,4.90
2023-05-05T15:03:54.084Z,6.28
2023-05-05T15:05:58.110Z,5.35
2023-05-05T15:06:59.722Z,6.07
2023-05-05T15:08:01.299Z,5.88
2023-05-05T15:09:02.909Z,5.75
2023-05-05T15:10:05.106Z,5.53
2023-05-05T15:11:07.307Z,5.28
2023-05-05T15:13:24.494Z,7.78
2023-05-05T15:14:45.344Z,6.45
2023-05-05T15:15:47.410Z,5.53
2023-05-05T15:16:48.932Z,5.05
2023-05-05T15:17:50.524Z,5.97
2023-05-05T15:18:52.240Z,4.70
2023-05-05T15:19:53.865Z,6.53
2023-05-05T15:20:55.516Z,6.63
2023-05-05T15:21:57.058Z,5.68
2023-05-05T15:22:58.500Z,5.07
2023-05-05T15:23:59.989Z,5.72
2023-05-05T15:25:01.622Z,4.65
2023-05-05T15:26:03.250Z,5.95
2023-05-05T15:27:04.824Z,5.65
2023-05-05T15:28:06.436Z,6.03
2023-05-05T15:29:07.964Z,5.63
2023-05-05T15:30:11.249Z,5.38
2023-05-05T15:31:15.633Z,5.30
2023-05-05T15:32:17.198Z,5.38
2023-05-05T15:33:18.750Z,4.93
2023-05-05T15:34:20.752Z,5.90
2023-05-05T15:35:25.422Z,5.32
2023-05-05T15:36:28.694Z,7.38
2023-05-05T15:37:30.300Z,7.25
2023-05-05T15:38:31.883Z,5.10
2023-05-05T15:39:33.396Z,5.80
2023-05-05T15:40:35.223Z,6.57
2023-05-05T15:41:36.789Z,10.23
2023-05-05T15:42:39.140Z,7.13
2023-05-05T15:43:40.827Z,6.00
2023-05-05T15:44:42.367Z,6.50
2023-05-05T15:45:44.048Z,6.13
2023-05-05T15:46:49.821Z,6.50
2023-05-05T15:47:52.937Z,4.57
2023-05-05T15:48:54.489Z,7.00
2023-05-05T15:49:56.178Z,5.93
2023-05-05T15:50:57.639Z,5.82
2023-05-05T15:51:59.217Z,7.10
2023-05-05T15:53:00.865Z,5.40
2023-05-05T15:54:02.408Z,5.65
2023-05-05T15:55:04.302Z,6.05
2023-05-05T15:56:06.010Z,5.93
2023-05-05T15:57:08.123Z,5.25
2023-05-05T15:58:09.816Z,6.82
2023-05-05T15:59:11.388Z,6.07
2023-05-05T16:00:13.948Z,7.25
2023-05-05T16:01:15.506Z,5.63
2023-05-05T16:02:17.123Z,5.35
2023-05-05T16:03:18.802Z,6.18
2023-05-05T16:04:24.111Z,5.35
2023-05-05T16:05:25.782Z,6.85
2023-05-05T16:06:27.995Z,4.72
2023-05-05T16:07:29.742Z,5.68
2023-05-05T16:08:32.227Z,6.40
2023-05-05T16:09:36.426Z,4.63
2023-05-05T16:10:38.092Z,4.93
2023-05-05T16:11:39.688Z,6.10
2023-05-05T16:12:41.354Z,5.35
2023-05-05T16:13:43.028Z,5.00
2023-05-05T16:14:44.561Z,5.35
2023-05-05T16:15:46.443Z,6.13
2023-05-05T16:16:48.242Z,5.85
2023-05-05T16:17:49.996Z,5.57
2023-05-05T16:18:51.663Z,4.97
2023-05-05T16:19:53.607Z,6.43
2023-05-05T16:20:57.720Z,5.43
2023-05-05T16:21:59.274Z,5.18
2023-05-05T16:23:00.879Z,5.18
2023-05-05T16:24:02.455Z,5.80
2023-05-05T16:25:04.380Z,6.90
2023-05-05T16:26:06.073Z,5.65
2023-05-05T16:27:07.758Z,5.70
2023-05-05T16:28:09.304Z,5.97
2023-05-05T16:29:11.555Z,5.75
2023-05-05T16:30:15.381Z,8.27
2023-05-05T16:31:17.845Z,7.82
2023-05-05T16:32:19.462Z,6.35
2023-05-05T16:33:21.122Z,6.30
2023-05-05T16:34:22.690Z,5.35
2023-05-05T16:35:24.205Z,5.75
2023-05-05T16:36:26.244Z,6.95
2023-05-05T16:37:27.919Z,5.43
2023-05-05T16:38:29.647Z,6.13
2023-05-05T16:39:33.064Z,5.57
2023-05-05T16:40:37.237Z,5.75
2023-05-05T16:41:39.473Z,5.80
2023-05-05T16:42:42.360Z,6.93
2023-05-05T16:43:46.895Z,6.85
2023-05-05T16:44:48.461Z,9.35
2023-05-05T16:45:50.036Z,7.38
2023-05-05T16:46:51.640Z,5.63
2023-05-05T16:47:55.361Z,6.07
2023-05-05T16:48:57.203Z,5.95
2023-05-05T16:49:58.722Z,7.22
2023-05-05T16:51:00.246Z,5.78
2023-05-05T16:52:02.302Z,5.95
2023-05-05T16:53:04.437Z,5.75
2023-05-05T16:54:06.117Z,6.65
2023-05-05T16:55:08.320Z,6.43
2023-05-05T16:56:13.179Z,7.15
2023-05-05T16:57:14.831Z,7.00
2023-05-05T16:58:16.452Z,6.22
2023-05-05T16:59:19.305Z,6.68
2023-05-05T17:01:22.554Z,6.47
2023-05-05T17:02:24.227Z,5.93
2023-05-05T17:03:26.557Z,6.22
2023-05-05T17:04:28.191Z,8.55
2023-05-05T17:05:29.813Z,6.28
2023-05-05T17:06:34.181Z,5.90
2023-05-05T17:07:35.842Z,5.35
2023-05-05T17:08:37.459Z,8.63
2023-05-05T17:09:39.085Z,6.32
2023-05-05T17:10:42.587Z,7.97
2023-05-05T17:11:44.082Z,6.07
2023-05-05T17:12:45.783Z,8.40
2023-05-05T17:13:47.314Z,8.02
2023-05-05T17:14:48.807Z,10.00
2023-05-05T17:15:50.570Z,7.97
2023-05-05T17:16:53.662Z,8.10
2023-05-05T17:17:55.276Z,7.43
2023-05-05T17:18:56.934Z,6.75
2023-05-05T17:19:58.798Z,8.35
2023-05-05T17:21:00.350Z,6.72
2023-05-05T17:22:01.893Z,8.15
2023-05-05T17:23:03.582Z,7.55
2023-05-05T17:24:05.699Z,7.68
2023-05-05T17:25:08.654Z,7.50
2023-05-05T17:26:15.109Z,7.43
2023-05-05T17:27:24.440Z,7.30
2023-05-05T17:28:26.066Z,8.15
2023-05-05T17:29:27.667Z,7.10
2023-05-05T17:30:29.375Z,7.50
2023-05-05T17:31:31.040Z,7.93
2023-05-05T17:32:32.630Z,6.55
2023-05-05T17:33:34.152Z,5.60
2023-05-05T17:34:35.715Z,7.07
2023-05-05T17:35:38.566Z,6.32
2023-05-05T17:37:41.884Z,6.43
2023-05-05T17:38:43.405Z,6.65
2023-05-05T17:39:44.932Z,7.22
2023-05-05T17:40:46.948Z,7.15
2023-05-05T17:41:48.455Z,5.70
2023-05-05T17:42:50.180Z,6.70
2023-05-05T17:43:51.983Z,6.10
2023-05-05T17:44:53.735Z,7.85
2023-05-05T17:45:55.737Z,7.18
2023-05-05T17:46:57.533Z,8.13
2023-05-05T17:47:59.258Z,5.90
2023-05-05T17:49:04.386Z,11.07
2023-05-05T17:50:08.544Z,6.97
2023-05-05T17:51:10.153Z,6.57
2023-05-05T17:52:12.852Z,7.45
2023-05-05T17:53:27.438Z,5.65
2023-05-05T17:56:05.217Z,7.72
2023-05-05T17:57:32.456Z,9.25
2023-05-05T17:58:39.244Z,8.30
2023-05-05T17:59:47.243Z,6.28
2023-05-05T18:00:48.937Z,9.27
2023-05-05T18:04:16.055Z,6.40
2023-05-05T18:12:22.979Z,6.78
2023-05-05T18:13:23.376Z,6.45
2023-05-05T18:15:13.144Z,6.53
2023-05-05T18:18:21.132Z,6.38
2023-05-05T18:20:08.112Z,7.80
2023-05-05T18:21:12.429Z,6.03
2023-05-05T18:22:17.197Z,7.30
2023-05-05T18:23:18.927Z,6.57
2023-05-05T18:25:13.040Z,7.05
2023-05-05T18:26:14.717Z,8.32
2023-05-05T18:27:16.865Z,6.72
2023-05-05T18:30:47.729Z,6.30
2023-05-05T18:31:53.047Z,6.97
2023-05-05T18:32:54.952Z,7.38
2023-05-05T18:34:16.904Z,6.07
2023-05-05T18:35:19.465Z,6.40
2023-05-05T18:36:21.274Z,6.65
2023-05-05T18:37:23.009Z,7.43
2023-05-05T18:38:24.773Z,7.80
2023-05-05T18:39:26.820Z,7.32
2023-05-05T18:40:28.413Z,6.35
2023-05-05T18:41:30.665Z,8.00
2023-05-05T18:42:32.241Z,18.55
2023-05-05T18:43:33.767Z,28.95
2023-05-05T18:44:35.724Z,25.10
2023-05-05T18:45:37.181Z,18.45
2023-05-05T18:46:38.738Z,12.50
2023-05-05T18:47:41.422Z,9.70
2023-05-05T18:48:42.961Z,12.10
2023-05-05T18:49:45.527Z,9.85
2023-05-05T18:50:47.788Z,9.93
2023-05-05T18:51:49.266Z,8.52
2023-05-05T18:52:50.848Z,7.28
2023-05-05T18:53:52.413Z,8.43
2023-05-05T18:54:53.966Z,8.20
2023-05-05T18:55:55.576Z,6.68
2023-05-05T18:56:57.401Z,6.53
2023-05-05T18:57:58.901Z,7.88
2023-05-05T18:59:00.486Z,8.65
2023-05-05T19:00:02.238Z,7.55
2023-05-05T19:01:03.836Z,9.30
2023-05-05T19:02:06.826Z,7.65
2023-05-05T19:03:17.683Z,7.00
2023-05-05T19:04:30.736Z,7.65
2023-05-05T19:05:33.220Z,9.70
2023-05-05T19:06:38.954Z,10.43
2023-05-05T19:07:43.467Z,8.88
2023-05-05T19:08:45.878Z,7.70
2023-05-05T19:10:07.429Z,8.60
2023-05-05T19:11:10.279Z,8.30
2023-05-05T19:13:45.530Z,7.28
2023-05-05T19:19:59.517Z,8.82
2023-05-05T19:21:12.238Z,8.25
2023-05-05T19:22:32.602Z,8.07
2023-05-05T19:23:36.196Z,8.82
2023-05-05T19:24:56.390Z,12.63
2023-05-05T19:26:09.382Z,9.60
2023-05-05T19:27:39.788Z,10.48
2023-05-05T19:28:43.618Z,6.90
2023-05-05T19:29:57.746Z,6.43
2023-05-05T19:31:23.979Z,6.53
2023-05-05T19:32:48.743Z,6.32
2023-05-05T19:35:57.675Z,8.98
2023-05-05T19:37:07.652Z,5.80
2023-05-05T19:38:51.859Z,6.18
2023-05-05T19:40:02.141Z,5.57
2023-05-05T19:41:03.763Z,5.43
2023-05-05T19:42:09.695Z,5.53
2023-05-05T19:43:11.874Z,6.55
2023-05-05T19:44:14.004Z,6.25
2023-05-05T19:45:16.058Z,5.80
2023-05-05T19:46:17.723Z,6.70
2023-05-05T19:47:19.664Z,6.00
2023-05-05T19:48:21.494Z,6.85
2023-05-05T19:49:36.259Z,6.88
2023-05-05T19:50:50.692Z,6.28
2023-05-05T19:53:46.374Z,4.45
2023-05-05T19:54:52.528Z,5.90
2023-05-05T19:55:54.286Z,4.78
2023-05-05T19:56:57.316Z,4.53
2023-05-05T19:57:59.076Z,5.07
2023-05-05T19:59:02.297Z,4.75
2023-05-05T20:00:04.268Z,6.15
2023-05-05T20:01:05.830Z,6.13
2023-05-05T20:02:09.691Z,28.95
2023-05-05T20:03:12.069Z,22.42
2023-05-05T20:04:13.696Z,9.73
2023-05-05T20:05:17.318Z,9.63
2023-05-05T20:06:18.987Z,8.30
2023-05-05T20:07:20.840Z,8.25
2023-05-05T20:08:22.378Z,4.88
2023-05-05T20:09:24.412Z,4.03
2023-05-05T20:10:26.810Z,4.68
2023-05-05T20:11:28.372Z,4.50
2023-05-05T20:12:30.067Z,4.07
2023-05-05T20:13:32.303Z,5.03
2023-05-05T20:14:34.030Z,4.43
2023-05-05T20:15:35.751Z,6.70
2023-05-05T20:16:39.174Z,3.70
2023-05-05T20:17:40.849Z,5.50
2023-05-05T20:18:42.371Z,4.78
2023-05-05T20:19:44.081Z,4.43
2023-05-05T20:20:45.686Z,5.13
2023-05-05T20:21:47.184Z,5.20
2023-05-05T20:22:49.647Z,5.65
2023-05-05T20:23:51.307Z,6.03
2023-05-05T20:24:53.421Z,5.40
2023-05-05T20:25:56.029Z,4.72
2023-05-05T20:26:57.768Z,6.45
2023-05-05T20:27:59.277Z,4.90
2023-05-05T20:29:01.042Z,4.40
2023-05-05T20:30:03.142Z,4.57
2023-05-05T20:31:07.769Z,4.65
2023-05-05T20:32:09.946Z,6.72
2023-05-05T20:33:11.824Z,6.93
2023-05-05T20:34:14.277Z,6.20
2023-05-05T20:35:16.411Z,5.00
2023-05-05T20:36:18.352Z,6.28
2023-05-05T20:37:22.346Z,4.78
2023-05-05T20:38:23.911Z,4.68
2023-05-05T20:39:26.161Z,4.57
2023-05-05T20:40:28.774Z,4.32
2023-05-05T20:41:30.356Z,5.75
2023-05-05T20:42:32.107Z,4.18
2023-05-05T20:43:33.989Z,4.70
2023-05-05T20:44:35.577Z,5.30
2023-05-05T20:45:37.266Z,4.10
2023-05-05T20:46:39.201Z,5.20
2023-05-05T20:47:41.493Z,5.28
2023-05-05T20:48:44.476Z,6.05
2023-05-05T20:49:46.161Z,29.75
2023-05-05T20:50:47.764Z,40.08
2023-05-05T20:51:49.584Z,24.40
2023-05-05T20:52:51.486Z,28.15
2023-05-05T20:53:53.446Z,26.50
2023-05-05T20:54:55.226Z,19.40
2023-05-05T20:55:56.754Z,9.88
2023-05-05T20:56:58.315Z,7.93
2023-05-05T20:57:59.905Z,6.07
2023-05-05T20:59:01.961Z,5.57
2023-05-05T21:00:04.254Z,5.03
2023-05-05T21:01:06.611Z,4.55
2023-05-05T21:02:08.333Z,4.55
2023-05-05T21:03:10.004Z,5.43
2023-05-05T21:04:11.676Z,4.45
2023-05-05T21:05:14.222Z,4.70
2023-05-05T21:06:15.703Z,4.40
2023-05-05T21:07:17.285Z,4.80
2023-05-05T21:08:18.912Z,5.05
2023-05-05T21:09:22.185Z,4.72
2023-05-05T21:10:23.918Z,4.82
2023-05-05T21:11:25.414Z,5.18
2023-05-05T21:12:29.384Z,5.53
2023-05-05T21:13:32.114Z,6.28
2023-05-05T21:14:34.396Z,4.60
2023-05-05T21:15:37.248Z,4.95
2023-05-05T21:16:39.462Z,5.10
2023-05-05T21:17:41.161Z,5.07
2023-05-05T21:18:46.634Z,5.75
2023-05-05T21:19:48.236Z,5.95
2023-05-05T21:20:49.696Z,5.28
2023-05-05T21:21:51.253Z,5.97
2023-05-05T21:22:53.264Z,4.63
2023-05-05T21:23:57.729Z,6.00
2023-05-05T21:25:16.920Z,4.95
2023-05-05T21:26:19.009Z,5.72
2023-05-05T21:27:21.154Z,6.30
2023-05-05T21:28:22.777Z,5.20
2023-05-05T21:29:27.621Z,5.53
2023-05-05T21:30:29.431Z,5.50
2023-05-05T21:31:31.069Z,5.13
2023-05-05T21:32:32.911Z,5.45
2023-05-05T21:33:34.488Z,5.05
2023-05-05T21:34:36.514Z,4.70
2023-05-05T21:35:38.035Z,5.25
2023-05-05T21:36:39.577Z,4.60
2023-05-05T21:37:41.595Z,7.97
2023-05-05T21:38:43.535Z,5.90
2023-05-05T21:39:45.114Z,4.57
2023-05-05T21:40:46.947Z,5.55
2023-05-05T21:41:48.487Z,7.18
2023-05-05T21:42:50.018Z,7.88
2023-05-05T21:43:51.491Z,5.85
2023-05-05T21:44:53.309Z,4.47
2023-05-05T21:46:01.119Z,4.93
2023-05-05T21:47:02.706Z,4.90
2023-05-05T21:48:04.932Z,5.80
2023-05-05T21:49:14.324Z,5.80
2023-05-05T21:50:17.256Z,5.43
2023-05-05T21:51:19.993Z,4.97
2023-05-05T21:52:25.695Z,5.07
2023-05-05T21:53:27.398Z,6.30
2023-05-05T21:54:30.057Z,5.63
2023-05-05T21:55:31.553Z,6.22
2023-05-05T21:56:33.934Z,6.18
2023-05-05T21:57:36.126Z,5.72
2023-05-05T21:58:37.637Z,6.72
2023-05-05T21:59:39.126Z,5.85
2023-05-05T22:00:42.359Z,6.53
2023-05-05T22:01:43.864Z,4.85
2023-05-05T22:02:45.534Z,7.95
2023-05-05T22:03:47.734Z,7.05
2023-05-05T22:04:52.283Z,5.00
2023-05-05T22:05:53.810Z,8.05
2023-05-05T22:06:55.454Z,13.35
2023-05-05T22:07:57.030Z,12.57
2023-05-05T22:08:58.579Z,29.60
2023-05-05T22:10:00.585Z,25.13
2023-05-05T22:11:02.116Z,16.30
2023-05-05T22:12:07.008Z,9.10
2023-05-05T22:13:10.622Z,6.45
2023-05-05T22:14:12.243Z,5.75
2023-05-05T22:15:14.395Z,5.78
2023-05-05T22:16:17.656Z,7.82
2023-05-05T22:17:19.364Z,5.50
2023-05-05T22:18:20.853Z,5.55
2023-05-05T22:19:22.460Z,6.40
2023-05-05T22:20:24.007Z,5.88
2023-05-05T22:21:27.634Z,5.57
2023-05-05T22:22:29.146Z,5.03
2023-05-05T22:23:30.883Z,5.10
2023-05-05T22:24:32.417Z,6.57
2023-05-05T22:25:33.990Z,6.00
2023-05-05T22:26:35.587Z,5.78
2023-05-05T22:27:37.341Z,5.80
2023-05-05T22:28:38.938Z,6.10
2023-05-05T22:29:40.884Z,5.30
2023-05-05T22:30:42.499Z,5.32
2023-05-05T22:31:44.120Z,6.55
2023-05-05T22:32:46.397Z,5.97
2023-05-05T22:33:47.990Z,5.55
2023-05-05T22:34:49.718Z,7.53
2023-05-05T22:35:52.095Z,5.95
2023-05-05T22:36:53.617Z,5.55
2023-05-05T22:37:55.210Z,4.80
2023-05-05T22:38:56.967Z,6.15
2023-05-05T22:39:58.471Z,4.63
2023-05-05T22:41:00.060Z,7.50
2023-05-05T22:42:01.959Z,6.13
2023-05-05T22:43:03.748Z,5.55
2023-05-05T22:44:05.605Z,5.68
2023-05-05T22:45:08.729Z,6.43
2023-05-05T22:46:10.641Z,6.65
2023-05-05T22:47:13.314Z,6.30
2023-05-05T22:48:15.108Z,6.18
2023-05-05T22:49:16.827Z,5.63
2023-05-05T22:50:19.051Z,5.22
2023-05-05T22:51:20.654Z,6.45
2023-05-05T22:52:22.260Z,7.13
2023-05-05T22:53:23.903Z,6.15
2023-05-05T22:54:25.564Z,5.72
2023-05-05T22:55:27.323Z,5.78
2023-05-05T22:56:29.142Z,5.80
2023-05-05T22:57:30.678Z,6.05
2023-05-05T22:58:32.366Z,7.25
2023-05-05T22:59:33.964Z,6.50
2023-05-05T23:00:35.880Z,8.07
2023-05-05T23:01:37.491Z,6.90
2023-05-05T23:02:39.447Z,5.97
2023-05-05T23:03:41.602Z,6.18
2023-05-05T23:04:46.421Z,5.18
2023-05-05T23:05:47.983Z,7.90
2023-05-05T23:06:49.564Z,6.03
2023-05-05T23:07:51.327Z,9.70
2023-05-05T23:08:53.165Z,8.93
2023-05-05T23:09:54.735Z,6.93
2023-05-05T23:10:56.385Z,6.65
2023-05-05T23:11:57.894Z,6.60
2023-05-05T23:12:59.426Z,7.50
2023-05-05T23:14:01.064Z,6.15
2023-05-05T23:15:02.676Z,6.40
2023-05-05T23:16:05.903Z,6.40
2023-05-05T23:17:07.376Z,7.22
2023-05-05T23:18:08.876Z,6.10
2023-05-05T23:19:10.505Z,6.10
2023-05-05T23:20:13.156Z,7.75
2023-05-05T23:21:14.658Z,6.75
2023-05-05T23:22:16.290Z,7.00
2023-05-05T23:23:17.852Z,6.18
2023-05-05T23:24:19.378Z,5.38
2023-05-05T23:25:21.071Z,7.03
2023-05-05T23:26:22.701Z,6.63
2023-05-05T23:27:24.328Z,6.72
2023-05-05T23:28:25.997Z,7.30
2023-05-05T23:29:28.272Z,6.88
2023-05-05T23:30:29.930Z,7.35
2023-05-05T23:31:31.589Z,6.13
2023-05-05T23:32:33.276Z,6.10
2023-05-05T23:33:34.788Z,6.40
2023-05-05T23:34:36.344Z,6.35
2023-05-05T23:35:39.567Z,8.15
2023-05-05T23:36:41.277Z,6.00
2023-05-05T23:37:42.924Z,8.20
2023-05-05T23:38:44.498Z,6.40
2023-05-05T23:39:46.042Z,7.40
2023-05-05T23:40:47.676Z,5.72
2023-05-05T23:41:49.152Z,6.68
2023-05-05T23:42:52.094Z,5.57